Etusivu
METAR-TAF:

METAR-TAF

Lentoasemat :

Bessemer, Alabama, Yhdysvallat

Leveyspiiri: 33-18-45N, Pituuspiiri: 086-55-35W, korkeus merenpinnasta: 213 m

Tämänhetkinen sää

Tämä raportti tehtiin 45 minuuttia sitten, kello 23.56 UTC
Tuuli 5 kn etelästä/kaakosta
Lämpötila 16°C
Kosteus 100%
Ilmanpaine 1009 hPa
Näkyvyys: 16.1 km
Hajonneita pilviä 7500 ft:n korkeudessa

METAR: KEKY 252356Z AUTO 15005KT 10SM BKN075 16/16 A2981 RMK AO2 SLP110 60030 T01560156 10161 20156 55033

Aika: 19:41 (00:41 UTC)


TAF: puuttuu

Säähavainnot ja -ennusteet yli 4000 lentoasemalta (METAR- ja TAF-raportit).

Käytössä olevat sääasemat on merkitty karttaan keltaisilla ja punaisilla pisteillä.

Aseta hiiri pisteen päälle nähdäksesi sääaseman nimen.

Klikkaa sitten nähdäksesi säähavainnot ja -ennusteet.

Kartan vaihtaminen: klikkaa mustalla rastilla varustettuja vihreitä pisteitä, niin voit zoomata sisään; viivalla varustettua vihreää pistettä, niin voit zoomata ulos tai vihreitä nuolia, niin pääset viereisille kartoille.


METAR-TAF: